createdAt,value
2023-03-10T00:01:53.324Z,13.93
2023-03-10T00:04:21.095Z,15.60
2023-03-10T00:06:48.769Z,13.53
2023-03-10T00:09:16.489Z,13.30
2023-03-10T00:11:45.549Z,15.57
2023-03-10T00:14:13.596Z,16.03
2023-03-10T00:16:41.290Z,13.85
2023-03-10T00:19:09.170Z,13.40
2023-03-10T00:21:36.861Z,14.33
2023-03-10T00:24:04.643Z,15.07
2023-03-10T00:26:32.325Z,15.37
2023-03-10T00:29:01.362Z,15.87
2023-03-10T00:31:31.314Z,15.10
2023-03-10T00:34:00.625Z,13.67
2023-03-10T00:36:29.601Z,17.53
2023-03-10T00:41:30.603Z,13.73
2023-03-10T00:43:58.987Z,13.43
2023-03-10T00:46:29.893Z,15.95
2023-03-10T00:48:57.784Z,11.10
2023-03-10T00:51:25.671Z,11.03
2023-03-10T00:53:53.330Z,14.20
2023-03-10T00:56:22.937Z,13.80
2023-03-10T00:58:52.526Z,12.03
2023-03-10T01:01:23.132Z,13.30
2023-03-10T01:03:53.063Z,11.63
2023-03-10T01:06:21.673Z,12.90
2023-03-10T01:08:49.336Z,13.05
2023-03-10T01:11:18.705Z,11.40
2023-03-10T01:13:48.106Z,13.23
2023-03-10T01:16:16.461Z,13.93
2023-03-10T01:18:44.929Z,11.70
2023-03-10T01:21:19.122Z,12.50
2023-03-10T01:23:46.891Z,15.37
2023-03-10T01:26:18.484Z,11.10
2023-03-10T01:28:46.648Z,14.13
2023-03-10T01:31:14.927Z,13.90
2023-03-10T01:33:43.037Z,10.98
2023-03-10T01:36:11.833Z,14.07
2023-03-10T01:38:40.931Z,12.27
2023-03-10T01:41:09.016Z,12.67
2023-03-10T01:43:38.493Z,10.35
2023-03-10T01:46:38.793Z,12.50
2023-03-10T01:49:15.453Z,13.43
2023-03-10T01:51:46.902Z,11.47
2023-03-10T01:54:19.609Z,12.10
2023-03-10T01:56:49.077Z,11.77
2023-03-10T01:59:16.920Z,10.70
2023-03-10T02:01:44.788Z,12.87
2023-03-10T02:04:17.529Z,12.07
2023-03-10T02:06:48.699Z,12.83
2023-03-10T02:09:19.527Z,11.33
2023-03-10T02:11:49.081Z,13.67
2023-03-10T02:14:17.258Z,13.13
2023-03-10T02:16:45.117Z,11.90
2023-03-10T02:19:24.129Z,11.73
2023-03-10T02:22:02.465Z,13.57
2023-03-10T02:24:40.746Z,10.38
2023-03-10T02:27:27.002Z,14.30
2023-03-10T02:30:00.635Z,12.07
2023-03-10T02:32:31.695Z,13.53
2023-03-10T02:34:59.688Z,12.13
2023-03-10T02:37:31.687Z,14.10
2023-03-10T02:40:02.390Z,11.80
2023-03-10T02:42:35.331Z,12.80
2023-03-10T02:45:04.483Z,11.10
2023-03-10T02:47:32.053Z,13.47
2023-03-10T02:49:59.772Z,13.17
2023-03-10T02:52:34.153Z,12.33
2023-03-10T02:55:01.934Z,12.53
2023-03-10T02:57:30.986Z,15.17
2023-03-10T02:59:58.660Z,13.53
2023-03-10T03:02:26.450Z,14.80
2023-03-10T03:04:54.151Z,11.90
2023-03-10T03:07:21.899Z,17.60
2023-03-10T03:09:49.731Z,13.07
2023-03-10T03:12:17.422Z,15.00
2023-03-10T03:14:46.472Z,12.93
2023-03-10T03:17:14.175Z,11.30
2023-03-10T03:19:41.809Z,13.73
2023-03-10T03:22:09.446Z,11.60
2023-03-10T03:24:37.116Z,14.73
2023-03-10T03:27:06.474Z,13.80
2023-03-10T03:29:34.138Z,12.87
2023-03-10T03:32:03.195Z,14.90
2023-03-10T03:34:30.911Z,18.37
2023-03-10T03:37:01.058Z,14.03
2023-03-10T03:39:28.734Z,12.03
2023-03-10T03:41:57.404Z,11.27
2023-03-10T03:44:25.141Z,13.65
2023-03-10T03:46:52.851Z,13.00
2023-03-10T03:49:21.921Z,12.97
2023-03-10T03:51:49.615Z,14.77
2023-03-10T03:54:17.372Z,11.50
2023-03-10T03:56:45.078Z,15.57
2023-03-10T03:59:12.672Z,13.57
2023-03-10T04:01:40.468Z,14.43
2023-03-10T04:04:08.210Z,12.17
2023-03-10T04:06:37.232Z,16.73
2023-03-10T04:09:05.232Z,14.13
2023-03-10T04:11:32.972Z,13.73
2023-03-10T04:14:00.661Z,12.67
2023-03-10T04:16:28.392Z,12.30
2023-03-10T04:18:56.044Z,13.00
2023-03-10T04:21:23.828Z,14.13
2023-03-10T04:23:52.955Z,19.07
2023-03-10T04:26:20.916Z,13.83
2023-03-10T04:28:48.496Z,15.15
2023-03-10T04:31:18.264Z,13.33
2023-03-10T04:33:46.248Z,12.50
2023-03-10T04:36:13.911Z,15.50
2023-03-10T04:38:42.017Z,18.07
2023-03-10T04:41:11.244Z,15.18
2023-03-10T04:43:42.015Z,12.97
2023-03-10T04:46:10.692Z,15.63
2023-03-10T04:48:38.576Z,12.00
2023-03-10T04:51:09.004Z,14.80
2023-03-10T04:53:37.747Z,13.53
2023-03-10T04:56:08.290Z,15.77
2023-03-10T04:58:37.339Z,18.20
2023-03-10T05:01:09.855Z,16.73
2023-03-10T05:03:40.802Z,17.00
2023-03-10T05:06:13.971Z,13.27
2023-03-10T05:08:41.864Z,12.07
2023-03-10T05:11:09.943Z,14.73
2023-03-10T05:13:39.017Z,13.73
2023-03-10T05:16:13.782Z,12.73
2023-03-10T05:18:41.491Z,13.80
2023-03-10T05:21:09.462Z,13.37
2023-03-10T05:23:37.080Z,13.07
2023-03-10T05:26:06.327Z,11.73
2023-03-10T05:28:34.011Z,13.33
2023-03-10T05:31:03.061Z,13.40
2023-03-10T05:33:31.577Z,12.67
2023-03-10T05:35:59.333Z,13.65
2023-03-10T05:38:27.056Z,11.23
2023-03-10T05:40:54.740Z,12.17
2023-03-10T05:43:22.492Z,13.10
2023-03-10T05:45:56.149Z,12.50
2023-03-10T05:48:25.710Z,14.50
2023-03-10T05:50:59.556Z,13.27
2023-03-10T05:53:27.732Z,13.70
2023-03-10T05:55:56.090Z,10.80
2023-03-10T05:58:23.980Z,12.00
2023-03-10T06:00:51.870Z,12.57
2023-03-10T06:03:20.610Z,9.87
2023-03-10T06:05:49.695Z,11.05
2023-03-10T06:08:17.468Z,11.37
2023-03-10T06:10:46.124Z,12.07
2023-03-10T06:13:13.816Z,12.53
2023-03-10T06:15:41.919Z,12.70
2023-03-10T06:18:09.580Z,12.25
2023-03-10T06:20:39.950Z,11.00
2023-03-10T06:23:08.950Z,11.70
2023-03-10T06:28:04.794Z,11.90
2023-03-10T06:30:32.719Z,12.25
2023-03-10T06:33:01.355Z,11.38
2023-03-10T06:35:29.916Z,11.75
2023-03-10T06:37:57.579Z,12.95
2023-03-10T06:40:26.741Z,12.43
2023-03-10T06:42:54.462Z,11.87
2023-03-10T06:45:22.589Z,10.50
2023-03-10T06:47:50.285Z,11.40
2023-03-10T06:50:18.213Z,9.90
2023-03-10T06:52:46.998Z,9.90
2023-03-10T06:55:15.992Z,11.77
2023-03-10T06:57:45.046Z,12.07
2023-03-10T07:00:15.833Z,12.60
2023-03-10T07:02:43.557Z,11.43
2023-03-10T07:05:13.337Z,11.83
2023-03-10T07:07:41.188Z,12.20
2023-03-10T07:10:10.318Z,10.10
2023-03-10T07:12:38.046Z,12.00
2023-03-10T07:15:08.524Z,10.10
2023-03-10T07:17:38.197Z,13.80
2023-03-10T07:20:06.978Z,12.50
2023-03-10T07:22:34.539Z,13.13
2023-03-10T07:25:02.091Z,13.67
2023-03-10T07:27:29.714Z,12.57
2023-03-10T07:29:57.442Z,10.90
2023-03-10T07:32:26.503Z,14.27
2023-03-10T07:34:54.396Z,9.90
2023-03-10T07:37:22.142Z,11.83
2023-03-10T07:39:49.953Z,8.77
2023-03-10T07:42:17.613Z,9.70
2023-03-10T07:44:45.230Z,9.90
2023-03-10T07:47:12.864Z,9.17
2023-03-10T07:49:46.378Z,9.83
2023-03-10T07:52:15.171Z,8.37
2023-03-10T07:57:11.959Z,8.97
2023-03-10T07:59:40.330Z,7.73
2023-03-10T08:02:08.550Z,9.98
2023-03-10T08:04:36.478Z,9.30
2023-03-10T08:07:05.625Z,8.02
2023-03-10T08:09:33.397Z,6.67
2023-03-10T08:12:02.240Z,6.93
2023-03-10T08:16:58.700Z,6.95
2023-03-10T08:19:27.549Z,7.83
2023-03-10T08:21:56.203Z,5.40
2023-03-10T08:24:25.513Z,5.35
2023-03-10T08:26:53.319Z,6.87
2023-03-10T08:29:21.716Z,7.73
2023-03-10T08:31:49.402Z,9.00
2023-03-10T08:34:17.511Z,7.33
2023-03-10T08:36:45.746Z,6.53
2023-03-10T08:39:14.122Z,6.30
2023-03-10T08:41:46.633Z,9.52
2023-03-10T08:44:17.636Z,7.90
2023-03-10T08:46:47.920Z,8.30
2023-03-10T08:49:17.761Z,7.47
2023-03-10T08:51:45.721Z,7.07
2023-03-10T08:54:15.360Z,5.43
2023-03-10T08:56:44.542Z,5.97
2023-03-10T08:59:12.375Z,5.83
2023-03-10T09:01:40.788Z,5.50
2023-03-10T09:04:10.289Z,5.15
2023-03-10T09:06:38.687Z,5.50
2023-03-10T09:09:07.806Z,7.65
2023-03-10T09:11:39.157Z,6.50
2023-03-10T09:14:09.819Z,6.87
2023-03-10T09:16:39.375Z,5.83
2023-03-10T09:19:07.259Z,6.90
2023-03-10T09:21:34.990Z,6.18
2023-03-10T09:24:05.861Z,5.73
2023-03-10T09:26:34.478Z,6.97
2023-03-10T09:29:02.231Z,6.72
2023-03-10T09:31:33.533Z,8.37
2023-03-10T09:34:01.352Z,7.83
2023-03-10T09:36:29.650Z,8.20
2023-03-10T09:38:59.057Z,7.55
2023-03-10T09:42:14.835Z,7.03
2023-03-10T09:44:51.257Z,6.83
2023-03-10T09:47:35.883Z,8.03
2023-03-10T09:50:17.151Z,7.47
2023-03-10T09:52:47.666Z,6.63
2023-03-10T09:55:21.204Z,7.20
2023-03-10T09:57:51.617Z,7.03
2023-03-10T10:00:23.403Z,8.27
2023-03-10T10:03:04.655Z,10.20
2023-03-10T10:05:35.680Z,7.77
2023-03-10T10:08:12.551Z,10.00
2023-03-10T10:10:40.313Z,10.97
2023-03-10T10:13:14.314Z,10.83
2023-03-10T10:15:45.370Z,8.33
2023-03-10T10:18:21.461Z,10.30
2023-03-10T10:20:58.836Z,8.60
2023-03-10T10:23:34.650Z,8.77
2023-03-10T10:26:11.637Z,10.67
2023-03-10T10:28:44.222Z,9.37
2023-03-10T10:31:15.090Z,7.90
2023-03-10T10:33:59.132Z,6.53
2023-03-10T10:36:28.761Z,8.07
2023-03-10T10:38:57.574Z,8.10
2023-03-10T10:44:00.444Z,8.27
2023-03-10T10:46:30.122Z,9.53
2023-03-10T10:49:20.439Z,7.37
2023-03-10T10:51:58.963Z,7.53
2023-03-10T10:54:29.165Z,7.85
2023-03-10T10:56:58.661Z,8.63
2023-03-10T10:59:30.206Z,8.37
2023-03-10T11:02:00.182Z,6.97
2023-03-10T11:04:41.306Z,7.70
2023-03-10T11:07:11.515Z,8.03
2023-03-10T11:09:39.196Z,8.17
2023-03-10T11:12:17.245Z,6.77
2023-03-10T11:14:57.530Z,8.68
2023-03-10T11:17:32.423Z,7.80
2023-03-10T11:20:10.185Z,5.83
2023-03-10T11:22:42.969Z,8.47
2023-03-10T11:25:24.418Z,6.07
2023-03-10T11:28:01.886Z,6.43
2023-03-10T11:30:33.686Z,5.70
2023-03-10T11:33:10.056Z,6.77
2023-03-10T11:35:45.544Z,6.87
2023-03-10T11:38:24.555Z,6.47
2023-03-10T11:40:58.354Z,6.03
2023-03-10T11:43:34.934Z,6.80
2023-03-10T11:46:09.620Z,7.27
2023-03-10T11:48:54.085Z,8.57
2023-03-10T11:51:29.628Z,7.30
2023-03-10T11:53:59.973Z,6.93
2023-03-10T11:56:29.016Z,6.10
2023-03-10T11:59:01.958Z,10.50
2023-03-10T12:01:32.413Z,10.80
2023-03-10T12:04:10.428Z,7.43
2023-03-10T12:06:47.492Z,7.88
2023-03-10T12:09:23.545Z,7.23
2023-03-10T12:11:53.857Z,8.80
2023-03-10T12:14:24.205Z,6.60
2023-03-10T12:16:54.002Z,7.13
2023-03-10T12:19:21.911Z,7.70
2023-03-10T12:22:25.726Z,7.75
2023-03-10T12:24:54.088Z,7.03
2023-03-10T12:27:21.919Z,6.95
2023-03-10T12:29:49.598Z,7.30
2023-03-10T12:32:48.185Z,8.03
2023-03-10T12:35:41.533Z,6.53
2023-03-10T12:38:32.812Z,8.03
2023-03-10T12:41:02.087Z,6.90
2023-03-10T12:43:56.353Z,7.23
2023-03-10T12:46:30.746Z,8.50
2023-03-10T12:49:15.597Z,8.60
2023-03-10T12:51:48.384Z,9.33
2023-03-10T12:54:34.893Z,9.17
2023-03-10T12:57:08.956Z,9.63
2023-03-10T12:59:42.121Z,10.03
2023-03-10T13:02:25.264Z,9.17
2023-03-10T13:05:00.330Z,8.93
2023-03-10T13:07:30.005Z,10.00
2023-03-10T13:10:01.634Z,8.33
2023-03-10T13:12:32.209Z,8.47
2023-03-10T13:15:04.192Z,11.10
2023-03-10T13:17:33.578Z,9.33
2023-03-10T13:20:08.580Z,8.97
2023-03-10T13:22:36.314Z,10.30
2023-03-10T13:25:08.022Z,9.33
2023-03-10T13:27:36.297Z,10.90
2023-03-10T13:30:06.665Z,11.65
2023-03-10T13:32:34.594Z,12.10
2023-03-10T13:35:15.586Z,10.50
2023-03-10T13:37:43.170Z,8.53
2023-03-10T13:40:17.773Z,11.87
2023-03-10T13:42:48.325Z,12.43
2023-03-10T13:45:23.066Z,11.67
2023-03-10T13:47:52.155Z,11.77
2023-03-10T13:50:20.280Z,11.60
2023-03-10T13:53:04.582Z,12.30
2023-03-10T13:55:40.387Z,11.60
2023-03-10T13:58:11.951Z,12.77
2023-03-10T14:00:40.051Z,13.97
2023-03-10T14:03:09.272Z,13.50
2023-03-10T14:05:43.572Z,15.70
2023-03-10T14:08:21.063Z,17.07
2023-03-10T14:10:50.513Z,17.13
2023-03-10T14:13:45.130Z,18.80
2023-03-10T14:16:13.321Z,19.20
2023-03-10T14:18:43.690Z,17.85
2023-03-10T14:21:25.703Z,15.77
2023-03-10T14:23:53.782Z,14.80
2023-03-10T14:26:22.792Z,11.48
2023-03-10T14:28:50.484Z,10.97
2023-03-10T14:31:22.257Z,8.83
2023-03-10T14:33:49.983Z,9.57
2023-03-10T14:36:20.531Z,10.17
2023-03-10T14:38:48.150Z,9.23
2023-03-10T14:41:17.737Z,7.07
2023-03-10T14:43:46.936Z,6.77
2023-03-10T14:46:14.726Z,8.60
2023-03-10T14:48:42.814Z,6.97
2023-03-10T14:51:28.990Z,7.22
2023-03-10T14:54:00.619Z,6.97
2023-03-10T14:56:30.117Z,8.00
2023-03-10T14:59:02.235Z,11.37
2023-03-10T15:01:30.426Z,11.80
2023-03-10T15:03:58.205Z,8.55
2023-03-10T15:06:28.735Z,8.70
2023-03-10T15:08:56.624Z,7.97
2023-03-10T15:11:36.396Z,8.50
2023-03-10T15:14:14.337Z,7.83
2023-03-10T15:16:42.223Z,6.67
2023-03-10T15:19:20.571Z,7.50
2023-03-10T15:21:48.337Z,8.68
2023-03-10T15:24:19.210Z,6.93
2023-03-10T15:26:48.184Z,6.10
2023-03-10T15:29:19.590Z,6.97
2023-03-10T15:31:47.801Z,6.93
2023-03-10T15:34:15.755Z,12.93
2023-03-10T15:36:43.859Z,10.13
2023-03-10T15:39:18.858Z,8.32
2023-03-10T15:41:55.067Z,11.40
2023-03-10T15:44:25.645Z,9.93
2023-03-10T15:46:55.124Z,10.93
2023-03-10T15:49:23.154Z,10.30
2023-03-10T15:51:51.072Z,12.23
2023-03-10T15:54:18.740Z,8.98
2023-03-10T15:56:46.904Z,6.60
2023-03-10T15:59:14.674Z,7.20
2023-03-10T16:01:43.791Z,9.93
2023-03-10T16:04:11.660Z,6.40
2023-03-10T16:06:39.371Z,4.33
2023-03-10T16:09:09.026Z,3.50
2023-03-10T16:11:36.935Z,2.70
2023-03-10T16:14:07.900Z,2.23
2023-03-10T16:16:35.897Z,3.40
2023-03-10T16:19:10.316Z,0.90
2023-03-10T16:21:41.062Z,2.40
2023-03-10T16:24:10.512Z,2.27
2023-03-10T16:26:38.550Z,2.07
2023-03-10T16:29:20.724Z,1.13
2023-03-10T16:31:48.492Z,2.33
2023-03-10T16:34:26.600Z,1.93
2023-03-10T16:37:02.671Z,3.40
2023-03-10T16:39:32.228Z,4.20
2023-03-10T16:42:13.367Z,3.63
2023-03-10T16:44:42.593Z,2.73
2023-03-10T16:53:44.569Z,2.57
2023-03-10T16:56:14.091Z,5.37
2023-03-10T16:58:41.998Z,4.73
2023-03-10T17:01:09.828Z,6.03
2023-03-10T17:03:39.919Z,3.27
2023-03-10T17:06:11.284Z,3.40
2023-03-10T17:08:39.848Z,3.27
2023-03-10T17:11:08.819Z,3.40
2023-03-10T17:13:37.823Z,3.13
2023-03-10T17:16:13.225Z,2.10
2023-03-10T17:18:41.244Z,3.30
2023-03-10T17:22:15.710Z,5.40
2023-03-10T17:29:35.721Z,2.47
2023-03-10T17:32:54.015Z,4.83
2023-03-10T17:49:38.596Z,2.73
2023-03-10T17:52:07.336Z,2.93
2023-03-10T17:54:35.399Z,4.50
2023-03-10T17:57:03.159Z,3.80
2023-03-10T17:59:31.955Z,5.03
2023-03-10T18:02:00.541Z,4.25
2023-03-10T18:04:29.729Z,4.25
2023-03-10T18:06:58.753Z,2.80
2023-03-10T18:11:56.384Z,7.33
2023-03-10T18:14:24.280Z,5.70
2023-03-10T18:16:52.273Z,4.80
2023-03-10T18:19:21.390Z,6.13
2023-03-10T18:21:49.475Z,4.90
2023-03-10T18:24:18.747Z,4.43
2023-03-10T18:26:47.108Z,5.53
2023-03-10T18:29:16.510Z,5.25
2023-03-10T18:31:44.363Z,7.80
2023-03-10T18:34:12.932Z,6.23
2023-03-10T18:36:40.823Z,9.55
2023-03-10T18:39:08.716Z,7.37
2023-03-10T18:41:37.983Z,8.70
2023-03-10T18:44:05.961Z,6.50
2023-03-10T18:46:34.062Z,11.23
2023-03-10T18:49:01.829Z,10.60
2023-03-10T18:51:30.288Z,10.30
2023-03-10T18:53:58.745Z,9.05
2023-03-10T18:56:29.113Z,7.60
2023-03-10T18:58:58.396Z,7.20
2023-03-10T19:01:26.811Z,6.33
2023-03-10T19:03:54.775Z,10.52
2023-03-10T19:06:22.749Z,9.20
2023-03-10T19:08:53.247Z,11.02
2023-03-10T19:11:24.307Z,8.07
2023-03-10T19:13:52.503Z,9.77
2023-03-10T19:16:22.443Z,15.73
2023-03-10T19:18:50.176Z,8.97
2023-03-10T19:21:18.139Z,10.17
2023-03-10T19:23:45.970Z,6.70
2023-03-10T19:26:13.809Z,8.97
2023-03-10T19:28:41.804Z,7.37
2023-03-10T19:31:10.809Z,10.57
2023-03-10T19:33:40.828Z,11.93
2023-03-10T19:36:11.871Z,5.33
2023-03-10T19:38:41.321Z,4.50
2023-03-10T19:41:13.148Z,6.70
2023-03-10T19:43:41.038Z,7.23
2023-03-10T19:46:11.547Z,7.90
2023-03-10T19:48:41.497Z,6.53
2023-03-10T19:51:10.446Z,8.13
2023-03-10T19:56:07.670Z,9.60
2023-03-10T19:58:35.373Z,11.27
2023-03-10T20:01:03.513Z,10.37
2023-03-10T20:03:34.036Z,8.60
2023-03-10T20:06:05.000Z,9.30
2023-03-10T20:08:34.070Z,11.67
2023-03-10T20:11:03.375Z,9.17
2023-03-10T20:13:31.670Z,8.67
2023-03-10T20:16:00.216Z,7.63
2023-03-10T20:18:27.921Z,7.47
2023-03-10T20:20:55.675Z,10.40
2023-03-10T20:23:24.982Z,14.47
2023-03-10T20:26:01.300Z,6.53
2023-03-10T20:28:29.105Z,11.00
2023-03-10T20:30:56.741Z,10.80
2023-03-10T20:33:24.496Z,16.77
2023-03-10T20:35:52.791Z,12.57
2023-03-10T20:38:20.583Z,10.00
2023-03-10T20:40:49.918Z,10.67
2023-03-10T20:43:18.205Z,18.67
2023-03-10T20:45:46.022Z,12.18
2023-03-10T20:48:13.839Z,6.83
2023-03-10T20:50:41.524Z,9.13
2023-03-10T20:53:09.234Z,9.03
2023-03-10T20:55:37.243Z,9.27
2023-03-10T20:58:06.385Z,7.95
2023-03-10T21:00:34.192Z,6.77
2023-03-10T21:03:02.030Z,11.27
2023-03-10T21:05:29.838Z,14.37
2023-03-10T21:07:58.671Z,10.13
2023-03-10T21:10:26.717Z,10.35
2023-03-10T21:12:54.461Z,10.27
2023-03-10T21:15:25.410Z,9.33
2023-03-10T21:17:53.389Z,5.07
2023-03-10T21:20:23.123Z,7.13
2023-03-10T21:22:51.239Z,8.13
2023-03-10T21:25:21.315Z,7.32
2023-03-10T21:27:50.234Z,12.37
2023-03-10T21:32:47.640Z,9.25
2023-03-10T21:35:15.400Z,5.73
2023-03-10T21:37:46.826Z,11.40
2023-03-10T21:40:17.988Z,8.23
2023-03-10T21:42:45.659Z,7.13
2023-03-10T21:45:16.551Z,16.10
2023-03-10T21:47:44.322Z,10.33
2023-03-10T21:50:14.904Z,7.80
2023-03-10T21:52:42.854Z,8.73
2023-03-10T21:55:17.308Z,9.68
2023-03-10T21:57:45.103Z,8.23
2023-03-10T22:00:13.934Z,9.27
2023-03-10T22:02:42.063Z,7.35
2023-03-10T22:05:13.255Z,6.82
2023-03-10T22:07:42.514Z,10.73
2023-03-10T22:10:11.878Z,10.50
2023-03-10T22:12:40.305Z,6.10
2023-03-10T22:15:10.274Z,10.65
2023-03-10T22:17:38.029Z,13.50
2023-03-10T22:20:08.458Z,13.70
2023-03-10T22:22:36.157Z,8.30
2023-03-10T22:25:05.600Z,10.67
2023-03-10T22:27:33.251Z,9.80
2023-03-10T22:30:01.086Z,10.17
2023-03-10T22:32:28.895Z,6.30
2023-03-10T22:34:57.375Z,9.30
2023-03-10T22:37:25.237Z,6.95
2023-03-10T22:39:53.020Z,9.13
2023-03-10T22:42:22.176Z,10.27
2023-03-10T22:44:49.869Z,5.83
2023-03-10T22:47:18.378Z,5.60
2023-03-10T22:49:46.357Z,9.50
2023-03-10T22:52:14.382Z,5.55
2023-03-10T22:54:42.064Z,4.45
2023-03-10T22:57:09.889Z,9.40
2023-03-10T22:59:38.963Z,6.97
2023-03-10T23:02:06.889Z,9.23
2023-03-10T23:04:34.579Z,6.63
2023-03-10T23:07:02.288Z,10.07
2023-03-10T23:09:30.192Z,6.30
2023-03-10T23:11:57.934Z,7.13
2023-03-10T23:14:25.640Z,6.63
2023-03-10T23:16:54.760Z,5.10
2023-03-10T23:19:22.476Z,6.93
2023-03-10T23:21:50.217Z,7.97
2023-03-10T23:24:17.921Z,6.43
2023-03-10T23:26:45.592Z,5.60
2023-03-10T23:29:13.637Z,8.47
2023-03-10T23:31:41.404Z,6.85
2023-03-10T23:34:10.426Z,7.37
2023-03-10T23:36:38.100Z,7.37
2023-03-10T23:39:07.508Z,9.17
2023-03-10T23:41:35.127Z,10.13
2023-03-10T23:44:03.168Z,4.90
2023-03-10T23:46:30.924Z,4.53
2023-03-10T23:48:58.833Z,7.53
2023-03-10T23:51:28.897Z,7.77
2023-03-10T23:53:56.562Z,8.57
2023-03-10T23:56:24.258Z,7.27
2023-03-10T23:58:51.946Z,6.10
